Time,TemperatureF,DewpointF,PressureIn,WindDirection,WindDirectionDegrees,WindSpeedMPH,WindSpeedGustMPH,Humidity,HourlyPrecipIn,Conditions,Clouds,dailyrainin,SoftwareType,DateUTC
2013-10-11 00:11:00,51.0,43.0,29.98,ESE,122,0.0,0.0,75,0.00,,,0.00,,2013-10-11 07:11:00,
2013-10-11 00:21:00,50.0,43.0,29.98,SE,125,0.0,0.0,76,0.00,,,0.00,,2013-10-11 07:21:00,
2013-10-11 00:42:00,50.0,43.0,29.98,SE,125,0.0,0.0,78,0.00,,,0.00,,2013-10-11 07:42:00,
2013-10-11 00:52:00,49.0,43.0,29.98,SE,125,0.0,0.0,80,0.00,,,0.00,,2013-10-11 07:52:00,
2013-10-11 01:11:00,49.0,43.0,29.98,SE,125,0.0,0.0,81,0.00,,,0.00,,2013-10-11 08:11:00,
2013-10-11 01:21:00,48.0,42.0,29.98,SE,125,0.0,0.0,81,0.00,,,0.00,,2013-10-11 08:21:00,
2013-10-11 01:42:00,48.0,43.0,29.98,SE,125,0.0,0.0,83,0.00,,,0.00,,2013-10-11 08:42:00,
2013-10-11 01:52:00,48.0,43.0,29.98,SE,125,0.0,0.0,83,0.00,,,0.00,,2013-10-11 08:52:00,
2013-10-11 02:12:00,48.0,44.0,29.99,SE,125,0.0,1.0,85,0.00,,,0.00,,2013-10-11 09:12:00,
2013-10-11 02:22:00,48.0,44.0,29.99,SE,125,0.0,0.0,85,0.00,,,0.00,,2013-10-11 09:22:00,
2013-10-11 02:42:00,48.0,44.0,29.99,SE,125,0.0,0.0,85,0.00,,,0.00,,2013-10-11 09:42:00,
2013-10-11 02:54:00,48.0,44.0,29.99,SE,125,0.0,0.0,86,0.00,,,0.00,,2013-10-11 09:54:00,
2013-10-11 03:12:00,48.0,44.0,29.99,SE,125,0.0,0.0,87,0.00,,,0.00,,2013-10-11 10:12:00,
2013-10-11 03:23:00,48.0,44.0,29.99,SE,125,0.0,0.0,87,0.00,,,0.00,,2013-10-11 10:23:00,
2013-10-11 03:42:00,47.0,44.0,30.00,SE,125,0.0,1.0,88,0.00,,,0.00,,2013-10-11 10:42:00,
2013-10-11 03:53:00,47.0,44.0,30.00,SE,125,0.0,1.0,89,0.00,,,0.00,,2013-10-11 10:53:00,
2013-10-11 04:12:00,47.0,44.0,30.00,SE,125,0.0,1.0,89,0.00,,,0.00,,2013-10-11 11:12:00,
2013-10-11 04:22:00,47.0,44.0,30.00,SE,125,0.0,0.0,89,0.00,,,0.00,,2013-10-11 11:22:00,
2013-10-11 04:52:00,47.0,44.0,30.01,SE,125,0.0,0.0,89,0.00,,,0.00,,2013-10-11 11:52:00,
2013-10-11 05:11:00,47.0,44.0,30.01,SE,125,0.0,0.0,89,0.00,,,0.00,,2013-10-11 12:11:00,
2013-10-11 05:22:00,47.0,44.0,30.01,SE,125,0.0,0.0,89,0.00,,,0.00,,2013-10-11 12:22:00,
2013-10-11 05:42:00,47.0,44.0,30.01,SE,125,0.0,1.0,89,0.00,,,0.00,,2013-10-11 12:42:00,
2013-10-11 05:52:00,47.0,43.0,30.01,SE,125,0.0,0.0,86,0.00,,,0.00,,2013-10-11 12:52:00,
2013-10-11 06:11:00,47.0,43.0,30.01,SE,125,0.0,0.0,86,0.00,,,0.00,,2013-10-11 13:11:00,
2013-10-11 06:21:00,47.0,43.0,30.01,SE,125,0.0,0.0,86,0.00,,,0.00,,2013-10-11 13:21:00,
2013-10-11 06:42:00,46.0,42.0,30.02,SE,125,0.0,0.0,87,0.00,,,0.00,,2013-10-11 13:42:00,
2013-10-11 06:53:00,46.0,42.0,30.02,SE,125,0.0,0.0,87,0.00,,,0.00,,2013-10-11 13:53:00,
2013-10-11 07:11:00,45.0,42.0,30.02,SE,125,0.0,0.0,88,0.00,,,0.00,,2013-10-11 14:11:00,
2013-10-11 07:22:00,45.0,42.0,30.03,SE,125,0.0,0.0,90,0.00,,,0.00,,2013-10-11 14:22:00,
2013-10-11 07:42:00,44.0,41.0,30.03,SE,125,0.0,0.0,89,0.00,,,0.00,,2013-10-11 14:42:00,
2013-10-11 07:52:00,44.0,41.0,30.03,SE,125,0.0,0.0,90,0.00,,,0.00,,2013-10-11 14:52:00,
2013-10-11 08:11:00,44.0,42.0,30.03,SE,125,0.0,1.0,92,0.00,,,0.00,,2013-10-11 15:11:00,
2013-10-11 08:22:00,45.0,43.0,30.04,SE,125,0.0,0.0,93,0.00,,,0.00,,2013-10-11 15:22:00,
2013-10-11 08:43:00,44.0,41.0,30.05,SE,125,0.0,1.0,90,0.00,,,0.00,,2013-10-11 15:43:00,
2013-10-11 08:54:00,43.0,41.0,30.06,SE,125,0.0,0.0,91,0.00,,,0.00,,2013-10-11 15:54:00,
2013-10-11 09:13:00,44.0,41.0,30.05,SE,125,1.0,2.0,89,0.00,,,0.00,,2013-10-11 16:13:00,
2013-10-11 09:22:00,46.0,42.0,30.06,SSE,159,2.0,3.0,87,0.00,,,0.00,,2013-10-11 16:22:00,
2013-10-11 09:43:00,45.0,42.0,30.07,South,173,1.0,3.0,88,0.00,,,0.00,,2013-10-11 16:43:00,
2013-10-11 09:53:00,46.0,43.0,30.06,SE,132,2.0,3.0,89,0.00,,,0.00,,2013-10-11 16:53:00,
2013-10-11 10:12:00,49.0,45.0,30.06,SSE,149,2.0,3.0,87,0.00,,,0.00,,2013-10-11 17:12:00,
2013-10-11 10:22:00,51.0,46.0,30.06,SSE,155,2.0,4.0,84,0.00,,,0.00,,2013-10-11 17:22:00,
2013-10-11 10:43:00,52.0,46.0,30.06,South,178,1.0,3.0,81,0.00,,,0.00,,2013-10-11 17:43:00,
2013-10-11 10:53:00,54.0,47.0,30.06,SSW,200,3.0,5.0,77,0.00,,,0.00,,2013-10-11 17:53:00,
2013-10-11 11:12:00,55.0,47.0,30.06,South,183,2.0,4.0,74,0.00,,,0.00,,2013-10-11 18:12:00,
2013-10-11 11:21:00,56.0,47.0,30.06,West,259,3.0,4.0,73,0.00,,,0.00,,2013-10-11 18:21:00,
2013-10-11 11:42:00,58.0,49.0,30.06,SSW,198,2.0,5.0,72,0.00,,,0.00,,2013-10-11 18:42:00,
2013-10-11 11:52:00,59.0,49.0,30.06,SSE,157,3.0,4.0,70,0.00,,,0.00,,2013-10-11 18:52:00,
2013-10-11 12:11:00,60.0,49.0,30.06,SSW,204,3.0,6.0,68,0.00,,,0.00,,2013-10-11 19:11:00,
2013-10-11 12:21:00,60.0,49.0,30.06,SSW,213,3.0,5.0,66,0.00,,,0.00,,2013-10-11 19:21:00,
2013-10-11 12:42:00,61.0,50.0,30.05,West,271,1.0,6.0,67,0.00,,,0.00,,2013-10-11 19:42:00,
2013-10-11 12:52:00,63.0,50.0,30.04,WSW,252,3.0,6.0,62,0.00,,,0.00,,2013-10-11 19:52:00,
2013-10-11 13:12:00,64.0,49.0,30.04,South,188,2.0,6.0,58,0.00,,,0.00,,2013-10-11 20:12:00,
2013-10-11 13:22:00,65.0,47.0,30.03,WSW,247,3.0,6.0,53,0.00,,,0.00,,2013-10-11 20:22:00,
2013-10-11 13:42:00,66.0,46.0,30.03,South,169,2.0,6.0,48,0.00,,,0.00,,2013-10-11 20:42:00,
2013-10-11 13:53:00,66.0,48.0,30.02,SW,230,4.0,7.0,52,0.00,,,0.00,,2013-10-11 20:53:00,
2013-10-11 14:12:00,67.0,48.0,30.02,South,171,4.0,7.0,50,0.00,,,0.00,,2013-10-11 21:12:00,
2013-10-11 14:22:00,67.0,48.0,30.01,WSW,250,3.0,7.0,50,0.00,,,0.00,,2013-10-11 21:22:00,
2013-10-11 14:43:00,67.0,47.0,30.01,WNW,283,3.0,7.0,48,0.00,,,0.00,,2013-10-11 21:43:00,
2013-10-11 14:55:00,67.0,46.0,30.01,SSE,163,2.0,6.0,46,0.00,,,0.00,,2013-10-11 21:55:00,
2013-10-11 15:13:00,67.0,44.0,30.01,SSE,163,3.0,7.0,43,0.00,,,0.00,,2013-10-11 22:13:00,
2013-10-11 15:23:00,67.0,45.0,30.01,SSW,192,3.0,7.0,45,0.00,,,0.00,,2013-10-11 22:23:00,
2013-10-11 15:43:00,68.0,46.0,30.00,SSE,167,2.0,4.0,46,0.00,,,0.00,,2013-10-11 22:43:00,
2013-10-11 15:54:00,67.0,47.0,30.00,SSE,163,3.0,8.0,49,0.00,,,0.00,,2013-10-11 22:54:00,
2013-10-11 16:12:00,67.0,47.0,30.00,South,184,3.0,6.0,48,0.00,,,0.00,,2013-10-11 23:12:00,
2013-10-11 16:22:00,67.0,47.0,29.99,SSW,206,2.0,6.0,49,0.00,,,0.00,,2013-10-11 23:22:00,
2013-10-11 16:42:00,67.0,47.0,29.99,South,184,3.0,6.0,48,0.00,,,0.00,,2013-10-11 23:42:00,
2013-10-11 16:53:00,66.0,46.0,29.99,SSE,148,2.0,6.0,49,0.00,,,0.00,,2013-10-11 23:53:00,
2013-10-11 17:12:00,66.0,46.0,29.98,West,260,2.0,7.0,48,0.00,,,0.00,,2013-10-12 00:12:00,
2013-10-11 17:22:00,67.0,46.0,29.98,SE,142,2.0,4.0,47,0.00,,,0.00,,2013-10-12 00:22:00,
2013-10-11 17:42:00,65.0,45.0,29.97,South,186,3.0,7.0,49,0.00,,,0.00,,2013-10-12 00:42:00,
2013-10-11 17:53:00,64.0,46.0,29.98,ESE,120,2.0,5.0,52,0.00,,,0.00,,2013-10-12 00:53:00,
2013-10-11 18:11:00,63.0,46.0,29.98,South,171,4.0,5.0,53,0.00,,,0.00,,2013-10-12 01:11:00,
2013-10-11 18:22:00,62.0,47.0,29.98,SSE,154,2.0,4.0,57,0.00,,,0.00,,2013-10-12 01:22:00,
2013-10-11 18:42:00,61.0,46.0,29.97,South,176,3.0,6.0,58,0.00,,,0.00,,2013-10-12 01:42:00,
2013-10-11 18:52:00,59.0,45.0,29.96,SE,146,3.0,5.0,59,0.00,,,0.00,,2013-10-12 01:52:00,
2013-10-11 19:12:00,58.0,45.0,29.96,SE,142,1.0,4.0,63,0.00,,,0.00,,2013-10-12 02:12:00,
2013-10-11 19:23:00,58.0,46.0,29.97,East,81,0.0,2.0,64,0.00,,,0.00,,2013-10-12 02:23:00,
2013-10-11 19:42:00,57.0,46.0,29.97,East,82,1.0,2.0,66,0.00,,,0.00,,2013-10-12 02:42:00,
2013-10-11 19:52:00,57.0,46.0,29.97,East,82,0.0,2.0,67,0.00,,,0.00,,2013-10-12 02:52:00,
2013-10-11 20:12:00,56.0,44.0,29.97,East,82,0.0,1.0,63,0.00,,,0.00,,2013-10-12 03:12:00,
2013-10-11 20:23:00,56.0,43.0,29.97,East,82,0.0,0.0,62,0.00,,,0.00,,2013-10-12 03:23:00,
2013-10-11 20:44:00,55.0,44.0,29.97,East,82,0.0,0.0,66,0.00,,,0.00,,2013-10-12 03:44:00,
2013-10-11 20:54:00,55.0,45.0,29.97,East,82,0.0,0.0,68,0.00,,,0.00,,2013-10-12 03:54:00,
2013-10-11 21:14:00,54.0,43.0,29.97,East,82,0.0,0.0,65,0.00,,,0.00,,2013-10-12 04:14:00,
2013-10-11 21:24:00,54.0,43.0,29.98,East,82,0.0,0.0,65,0.00,,,0.00,,2013-10-12 04:24:00,
2013-10-11 21:44:00,54.0,42.0,29.98,East,82,0.0,0.0,64,0.00,,,0.00,,2013-10-12 04:44:00,
2013-10-11 21:54:00,54.0,43.0,29.98,East,82,0.0,0.0,66,0.00,,,0.00,,2013-10-12 04:54:00,
2013-10-11 22:13:00,54.0,44.0,29.98,East,82,0.0,0.0,68,0.00,,,0.00,,2013-10-12 05:13:00,
2013-10-11 22:23:00,54.0,44.0,29.98,East,82,0.0,0.0,69,0.00,,,0.00,,2013-10-12 05:23:00,
2013-10-11 22:43:00,54.0,44.0,29.98,East,82,0.0,0.0,68,0.00,,,0.00,,2013-10-12 05:43:00,
2013-10-11 22:52:00,54.0,44.0,29.98,East,82,0.0,0.0,69,0.00,,,0.00,,2013-10-12 05:52:00,
2013-10-11 23:12:00,54.0,44.0,29.97,East,82,0.0,0.0,69,0.00,,,0.00,,2013-10-12 06:12:00,
2013-10-11 23:22:00,54.0,44.0,29.98,East,82,0.0,1.0,70,0.00,,,0.00,,2013-10-12 06:22:00,
2013-10-11 23:42:00,53.0,43.0,29.98,East,82,0.0,0.0,70,0.00,,,0.00,,2013-10-12 06:42:00,
2013-10-11 23:52:00,53.0,43.0,29.98,East,82,0.0,1.0,70,0.00,,,0.00,,2013-10-12 06:52:00,